Time,TemperatureF,DewpointF,PressureIn,WindDirection,WindDirectionDegrees,WindSpeedMPH,WindSpeedGustMPH,Humidity,HourlyPrecipIn,Conditions,Clouds,dailyrainin,SoftwareType,DateUTC
2013-05-01 00:01:00,61.9,53.5,29.61,ESE,108,0.0,0.0,74,0.00,,,0.00,Wunderground v.1.15,2013-05-01 05:01:00,
2013-05-01 00:06:00,61.7,53.3,29.61,ESE,102,0.0,0.0,74,0.00,,,0.00,Wunderground v.1.15,2013-05-01 05:06:00,
2013-05-01 00:11:00,61.5,53.1,29.61,East,96,0.0,0.0,74,0.00,,,0.00,Wunderground v.1.15,2013-05-01 05:11:00,
2013-05-01 00:16:00,61.4,53.4,29.61,East,92,0.0,0.0,75,0.00,,,0.00,Wunderground v.1.15,2013-05-01 05:16:00,
2013-05-01 00:21:00,61.1,53.1,29.61,East,92,0.0,0.0,75,0.00,,,0.00,Wunderground v.1.15,2013-05-01 05:21:00,
2013-05-01 00:26:00,60.8,53.2,29.61,East,92,0.0,0.0,76,0.00,,,0.00,Wunderground v.1.15,2013-05-01 05:26:00,
2013-05-01 00:31:00,60.5,53.3,29.61,East,94,0.0,0.0,77,0.00,,,0.00,Wunderground v.1.15,2013-05-01 05:31:00,
2013-05-01 00:36:00,60.4,53.2,29.61,East,94,0.0,0.0,77,0.00,,,0.00,Wunderground v.1.15,2013-05-01 05:36:00,
2013-05-01 00:41:00,60.2,53.0,29.61,East,95,0.0,0.0,77,0.00,,,0.00,Wunderground v.1.15,2013-05-01 05:41:00,
2013-05-01 00:46:00,60.0,53.1,29.61,East,95,0.0,0.0,78,0.00,,,0.00,Wunderground v.1.15,2013-05-01 05:46:00,
2013-05-01 00:51:00,59.7,53.2,29.61,East,94,0.0,0.0,79,0.00,,,0.00,Wunderground v.1.15,2013-05-01 05:51:00,
2013-05-01 00:56:00,59.2,52.7,29.61,East,94,0.0,0.0,79,0.00,,,0.00,Wunderground v.1.15,2013-05-01 05:56:00,
2013-05-01 01:01:00,58.9,52.7,29.61,East,94,0.0,0.0,80,0.00,,,0.00,Wunderground v.1.15,2013-05-01 06:01:00,
2013-05-01 01:06:00,58.8,53.0,29.61,East,94,0.0,0.0,81,0.00,,,0.00,Wunderground v.1.15,2013-05-01 06:06:00,
2013-05-01 01:11:00,58.6,52.8,29.61,East,94,0.0,0.0,81,0.00,,,0.00,Wunderground v.1.15,2013-05-01 06:11:00,
2013-05-01 01:16:00,58.4,52.6,29.61,East,95,0.0,0.0,81,0.00,,,0.00,Wunderground v.1.15,2013-05-01 06:16:00,
2013-05-01 01:21:00,58.2,52.7,29.61,East,94,0.0,0.0,82,0.00,,,0.00,Wunderground v.1.15,2013-05-01 06:21:00,
2013-05-01 01:26:00,58.0,52.9,29.61,East,95,0.0,0.0,83,0.00,,,0.00,Wunderground v.1.15,2013-05-01 06:26:00,
2013-05-01 01:31:00,57.7,52.6,29.61,East,95,0.0,0.0,83,0.00,,,0.00,Wunderground v.1.15,2013-05-01 06:31:00,
2013-05-01 01:36:00,57.5,52.7,29.61,East,94,0.0,0.0,84,0.00,,,0.00,Wunderground v.1.15,2013-05-01 06:36:00,
2013-05-01 01:41:00,57.2,52.4,29.61,East,95,0.0,0.0,84,0.00,,,0.00,Wunderground v.1.15,2013-05-01 06:41:00,
2013-05-01 01:46:00,57.1,52.6,29.61,East,94,0.0,0.0,85,0.00,,,0.00,Wunderground v.1.15,2013-05-01 06:46:00,
2013-05-01 01:51:00,57.0,52.5,29.61,East,94,0.0,0.0,85,0.00,,,0.00,Wunderground v.1.15,2013-05-01 06:51:00,
2013-05-01 01:56:00,56.7,52.9,29.61,East,95,0.0,0.0,87,0.00,,,0.00,Wunderground v.1.15,2013-05-01 06:56:00,
2013-05-01 02:01:00,56.7,52.9,29.61,East,94,0.0,0.0,87,0.00,,,0.00,Wunderground v.1.15,2013-05-01 07:01:00,
2013-05-01 02:06:00,56.6,52.8,29.61,East,94,0.0,0.0,87,0.00,,,0.00,Wunderground v.1.15,2013-05-01 07:06:00,
2013-05-01 02:11:00,56.6,52.8,29.61,East,95,0.0,0.0,87,0.00,,,0.00,Wunderground v.1.15,2013-05-01 07:11:00,
2013-05-01 02:16:00,56.7,52.9,29.61,East,95,0.0,0.0,87,0.00,,,0.00,Wunderground v.1.15,2013-05-01 07:16:00,
2013-05-01 02:21:00,56.4,52.6,29.61,East,95,0.0,0.0,87,0.00,,,0.00,Wunderground v.1.15,2013-05-01 07:21:00,
2013-05-01 02:26:00,56.2,52.7,29.61,East,95,0.0,0.0,88,0.00,,,0.00,Wunderground v.1.15,2013-05-01 07:26:00,
2013-05-01 02:31:00,56.1,52.9,29.61,East,95,0.0,0.0,89,0.00,,,0.00,Wunderground v.1.15,2013-05-01 07:31:00,
2013-05-01 02:36:00,55.7,52.5,29.62,East,95,0.0,0.0,89,0.00,,,0.00,Wunderground v.1.15,2013-05-01 07:36:00,
2013-05-01 02:41:00,55.3,52.1,29.62,East,94,0.0,0.0,89,0.00,,,0.00,Wunderground v.1.15,2013-05-01 07:41:00,
2013-05-01 02:46:00,54.9,52.0,29.62,East,94,0.0,0.0,90,0.00,,,0.00,Wunderground v.1.15,2013-05-01 07:46:00,
2013-05-01 02:51:00,54.6,52.0,29.62,East,95,0.0,0.0,91,0.00,,,0.00,Wunderground v.1.15,2013-05-01 07:51:00,
2013-05-01 02:56:00,54.5,52.2,29.62,East,94,0.0,0.0,92,0.00,,,0.00,Wunderground v.1.15,2013-05-01 07:56:00,
2013-05-01 03:01:00,54.5,52.5,29.62,East,94,0.0,0.0,93,0.00,,,0.00,Wunderground v.1.15,2013-05-01 08:01:00,
2013-05-01 03:06:00,54.5,52.5,29.62,East,95,0.0,0.0,93,0.00,,,0.00,Wunderground v.1.15,2013-05-01 08:06:00,
2013-05-01 03:11:00,54.5,52.5,29.62,East,94,0.0,0.0,93,0.00,,,0.00,Wunderground v.1.15,2013-05-01 08:11:00,
2013-05-01 03:16:00,54.4,52.4,29.62,SSE,168,0.0,0.0,93,0.00,,,0.00,Wunderground v.1.15,2013-05-01 08:16:00,
2013-05-01 03:21:00,54.2,52.2,29.62,SSE,168,0.0,0.0,93,0.00,,,0.00,Wunderground v.1.15,2013-05-01 08:21:00,
2013-05-01 03:26:00,54.2,52.2,29.63,SSE,166,0.0,0.0,93,0.00,,,0.00,Wunderground v.1.15,2013-05-01 08:26:00,
2013-05-01 03:31:00,54.2,52.2,29.63,SSE,167,0.0,0.0,93,0.00,,,0.00,Wunderground v.1.15,2013-05-01 08:31:00,
2013-05-01 03:36:00,54.1,52.4,29.63,SSE,166,0.0,0.0,94,0.00,,,0.00,Wunderground v.1.15,2013-05-01 08:36:00,
2013-05-01 03:41:00,54.0,52.0,29.63,SSE,166,0.0,0.0,93,0.00,,,0.00,Wunderground v.1.15,2013-05-01 08:41:00,
2013-05-01 03:46:00,53.8,51.8,29.63,SSE,167,0.0,0.0,93,0.00,,,0.00,Wunderground v.1.15,2013-05-01 08:46:00,
2013-05-01 03:51:00,53.7,51.7,29.63,SSE,166,0.0,0.0,93,0.00,,,0.00,Wunderground v.1.15,2013-05-01 08:51:00,
2013-05-01 03:56:00,53.8,52.1,29.63,SSE,166,0.0,0.0,94,0.00,,,0.00,Wunderground v.1.15,2013-05-01 08:56:00,
2013-05-01 04:01:00,54.1,52.4,29.63,SW,222,0.0,0.0,94,0.00,,,0.00,Wunderground v.1.15,2013-05-01 09:01:00,
2013-05-01 04:06:00,53.8,51.8,29.63,SW,229,0.0,0.0,93,0.00,,,0.00,Wunderground v.1.15,2013-05-01 09:06:00,
2013-05-01 04:11:00,53.7,52.0,29.63,SW,228,0.0,0.0,94,0.00,,,0.00,Wunderground v.1.15,2013-05-01 09:11:00,
2013-05-01 04:16:00,53.8,52.1,29.63,SW,228,0.0,0.0,94,0.00,,,0.00,Wunderground v.1.15,2013-05-01 09:16:00,
2013-05-01 04:21:00,53.6,51.9,29.63,SW,228,0.0,0.0,94,0.00,,,0.00,Wunderground v.1.15,2013-05-01 09:21:00,
2013-05-01 04:26:00,53.4,51.7,29.63,SW,228,0.0,0.0,94,0.00,,,0.00,Wunderground v.1.15,2013-05-01 09:26:00,
2013-05-01 04:31:00,53.1,51.4,29.63,SW,228,0.0,0.0,94,0.00,,,0.00,Wunderground v.1.15,2013-05-01 09:31:00,
2013-05-01 04:36:00,52.9,51.2,29.63,SW,228,0.0,0.0,94,0.00,,,0.00,Wunderground v.1.15,2013-05-01 09:36:00,
2013-05-01 04:41:00,52.9,51.5,29.63,SW,228,0.0,0.0,95,0.00,,,0.00,Wunderground v.1.15,2013-05-01 09:41:00,
2013-05-01 04:46:00,52.7,51.3,29.63,SW,228,0.0,0.0,95,0.00,,,0.00,Wunderground v.1.15,2013-05-01 09:46:00,
2013-05-01 04:51:00,52.8,51.4,29.63,SW,228,0.0,0.0,95,0.00,,,0.00,Wunderground v.1.15,2013-05-01 09:51:00,
2013-05-01 04:56:00,52.8,51.7,29.63,SW,227,0.0,0.0,96,0.00,,,0.00,Wunderground v.1.15,2013-05-01 09:56:00,
2013-05-01 05:01:00,52.7,51.3,29.63,SW,228,0.0,0.0,95,0.00,,,0.00,Wunderground v.1.15,2013-05-01 10:01:00,
2013-05-01 05:06:00,52.7,51.6,29.63,SSW,195,0.0,0.0,96,0.00,,,0.00,Wunderground v.1.15,2013-05-01 10:06:00,
2013-05-01 05:11:00,53.0,51.9,29.63,SSW,195,0.0,0.0,96,0.00,,,0.00,Wunderground v.1.15,2013-05-01 10:11:00,
2013-05-01 05:16:00,53.2,52.1,29.64,SSW,195,0.0,0.0,96,0.00,,,0.00,Wunderground v.1.15,2013-05-01 10:16:00,
2013-05-01 05:21:00,53.2,52.1,29.64,SSW,195,0.0,0.0,96,0.00,,,0.00,Wunderground v.1.15,2013-05-01 10:21:00,
2013-05-01 05:26:00,53.1,52.0,29.64,SSW,195,0.0,0.0,96,0.00,,,0.00,Wunderground v.1.15,2013-05-01 10:26:00,
2013-05-01 05:31:00,53.0,51.9,29.64,SSW,195,0.0,0.0,96,0.00,,,0.00,Wunderground v.1.15,2013-05-01 10:31:00,
2013-05-01 05:36:00,53.0,51.9,29.64,SSW,195,0.0,0.0,96,0.00,,,0.00,Wunderground v.1.15,2013-05-01 10:36:00,
2013-05-01 05:41:00,52.9,51.8,29.64,SSW,206,0.0,0.0,96,0.00,,,0.00,Wunderground v.1.15,2013-05-01 10:41:00,
2013-05-01 05:46:00,52.8,51.7,29.65,SSW,206,0.0,0.0,96,0.00,,,0.00,Wunderground v.1.15,2013-05-01 10:46:00,
2013-05-01 05:51:00,52.7,51.6,29.65,SSW,206,0.0,0.0,96,0.00,,,0.00,Wunderground v.1.15,2013-05-01 10:51:00,
2013-05-01 05:56:00,52.8,51.7,29.65,SSW,203,0.0,0.0,96,0.00,,,0.00,Wunderground v.1.15,2013-05-01 10:56:00,
2013-05-01 06:01:00,52.9,51.8,29.65,SSW,202,0.0,0.0,96,0.00,,,0.00,Wunderground v.1.15,2013-05-01 11:01:00,
2013-05-01 06:06:00,52.8,51.7,29.65,SSW,203,0.0,0.0,96,0.00,,,0.00,Wunderground v.1.15,2013-05-01 11:06:00,
2013-05-01 06:11:00,52.8,51.7,29.66,SW,214,0.0,0.0,96,0.00,,,0.00,Wunderground v.1.15,2013-05-01 11:11:00,
2013-05-01 06:16:00,52.8,51.7,29.66,SW,214,0.0,0.0,96,0.00,,,0.00,Wunderground v.1.15,2013-05-01 11:16:00,
2013-05-01 06:21:00,53.3,52.2,29.66,SSW,211,0.0,0.0,96,0.00,,,0.00,Wunderground v.1.15,2013-05-01 11:21:00,
2013-05-01 06:26:00,53.8,52.7,29.66,SSW,211,0.0,0.0,96,0.00,,,0.00,Wunderground v.1.15,2013-05-01 11:26:00,
2013-05-01 06:31:00,54.0,52.6,29.66,SSW,211,0.0,0.0,95,0.00,,,0.00,Wunderground v.1.15,2013-05-01 11:31:00,
2013-05-01 06:36:00,54.2,52.8,29.67,SSW,211,0.0,0.0,95,0.00,,,0.00,Wunderground v.1.15,2013-05-01 11:36:00,
2013-05-01 06:41:00,54.8,53.4,29.67,SSW,211,0.0,0.0,95,0.00,,,0.00,Wunderground v.1.15,2013-05-01 11:41:00,
2013-05-01 06:46:00,55.3,53.6,29.67,ESE,107,0.0,0.0,94,0.00,,,0.00,Wunderground v.1.15,2013-05-01 11:46:00,
2013-05-01 06:51:00,55.9,54.2,29.67,ESE,108,0.0,0.0,94,0.00,,,0.00,Wunderground v.1.15,2013-05-01 11:51:00,
2013-05-01 06:56:00,56.7,54.4,29.67,ESE,108,0.0,0.0,92,0.00,,,0.00,Wunderground v.1.15,2013-05-01 11:56:00,
2013-05-01 07:01:00,57.5,54.6,29.67,ESE,119,0.0,0.0,90,0.00,,,0.00,Wunderground v.1.15,2013-05-01 12:01:00,
2013-05-01 07:06:00,58.1,54.2,29.68,ESE,104,0.0,2.0,87,0.00,,,0.00,Wunderground v.1.15,2013-05-01 12:06:00,
2013-05-01 07:11:00,58.6,54.1,29.68,ESE,105,0.0,1.0,85,0.00,,,0.00,Wunderground v.1.15,2013-05-01 12:11:00,
2013-05-01 07:16:00,59.1,53.9,29.68,ESE,107,1.0,1.0,83,0.00,,,0.00,Wunderground v.1.15,2013-05-01 12:16:00,
2013-05-01 07:21:00,59.4,54.2,29.68,ESE,112,1.0,1.0,83,0.00,,,0.00,Wunderground v.1.15,2013-05-01 12:21:00,
2013-05-01 07:26:00,59.8,54.3,29.68,ESE,111,0.0,2.0,82,0.00,,,0.00,Wunderground v.1.15,2013-05-01 12:26:00,
2013-05-01 07:30:00,60.2,54.3,29.68,East,96,0.0,3.0,81,0.00,,,0.00,Wunderground v.1.15,2013-05-01 12:30:00,
2013-05-01 07:35:00,60.4,54.2,29.69,ESE,105,1.0,3.0,80,0.00,,,0.00,Wunderground v.1.15,2013-05-01 12:35:00,
2013-05-01 07:40:00,60.5,54.0,29.69,ESE,115,4.0,4.0,79,0.00,,,0.00,Wunderground v.1.15,2013-05-01 12:40:00,
2013-05-01 07:45:00,60.7,54.1,29.69,East,101,2.0,4.0,79,0.00,,,0.00,Wunderground v.1.15,2013-05-01 12:45:00,
2013-05-01 07:50:00,61.0,54.4,29.69,East,84,0.0,1.0,79,0.00,,,0.00,Wunderground v.1.15,2013-05-01 12:50:00,
2013-05-01 07:55:00,61.2,53.9,29.69,SE,134,0.0,3.0,77,0.00,,,0.00,Wunderground v.1.15,2013-05-01 12:55:00,
2013-05-01 08:00:00,61.3,54.0,29.69,East,86,0.0,1.0,77,0.00,,,0.00,Wunderground v.1.15,2013-05-01 13:00:00,
2013-05-01 08:05:00,61.3,54.0,29.69,ESE,103,0.0,2.0,77,0.00,,,0.00,Wunderground v.1.15,2013-05-01 13:05:00,
2013-05-01 08:10:00,61.5,54.2,29.69,East,80,0.0,2.0,77,0.00,,,0.00,Wunderground v.1.15,2013-05-01 13:10:00,
2013-05-01 08:15:00,61.8,54.5,29.69,East,87,0.0,3.0,77,0.00,,,0.00,Wunderground v.1.15,2013-05-01 13:15:00,
2013-05-01 08:20:00,62.4,55.1,29.69,East,79,1.0,2.0,77,0.00,,,0.00,Wunderground v.1.15,2013-05-01 13:20:00,
2013-05-01 08:25:00,62.8,55.5,29.70,SE,142,0.0,2.0,77,0.00,,,0.00,Wunderground v.1.15,2013-05-01 13:25:00,
2013-05-01 08:30:00,63.0,55.3,29.70,ENE,63,1.0,2.0,76,0.00,,,0.00,Wunderground v.1.15,2013-05-01 13:30:00,
2013-05-01 08:35:00,63.3,55.6,29.69,SE,131,2.0,3.0,76,0.00,,,0.00,Wunderground v.1.15,2013-05-01 13:35:00,
2013-05-01 08:40:00,63.9,55.8,29.70,East,86,1.0,2.0,75,0.00,,,0.00,Wunderground v.1.15,2013-05-01 13:40:00,
2013-05-01 08:46:00,64.4,55.9,29.70,ENE,72,3.0,3.0,74,0.00,,,0.00,Wunderground v.1.15,2013-05-01 13:46:00,
2013-05-01 08:51:00,65.0,56.1,29.70,ESE,104,2.0,3.0,73,0.00,,,0.00,Wunderground v.1.15,2013-05-01 13:51:00,
2013-05-01 08:56:00,65.6,56.7,29.70,ENE,75,1.0,4.0,73,0.00,,,0.00,Wunderground v.1.15,2013-05-01 13:56:00,
2013-05-01 09:01:00,66.4,57.1,29.70,ESE,104,2.0,3.0,72,0.00,,,0.00,Wunderground v.1.15,2013-05-01 14:01:00,
2013-05-01 09:06:00,67.0,57.3,29.70,East,79,2.0,4.0,71,0.00,,,0.00,Wunderground v.1.15,2013-05-01 14:06:00,
2013-05-01 09:11:00,67.5,57.4,29.70,ESE,103,0.0,4.0,70,0.00,,,0.00,Wunderground v.1.15,2013-05-01 14:11:00,
2013-05-01 09:16:00,68.1,57.5,29.70,NE,48,3.0,4.0,69,0.00,,,0.00,Wunderground v.1.15,2013-05-01 14:16:00,
2013-05-01 09:21:00,68.3,57.7,29.70,East,89,4.0,7.0,69,0.00,,,0.00,Wunderground v.1.15,2013-05-01 14:21:00,
2013-05-01 09:26:00,68.6,57.6,29.70,SSE,149,6.0,8.0,68,0.00,,,0.00,Wunderground v.1.15,2013-05-01 14:26:00,
2013-05-01 09:31:00,69.5,58.1,29.70,SSE,162,3.0,5.0,67,0.00,,,0.00,Wunderground v.1.15,2013-05-01 14:31:00,
2013-05-01 09:36:00,70.2,57.9,29.70,ESE,105,11.0,12.0,65,0.00,,,0.00,Wunderground v.1.15,2013-05-01 14:36:00,
2013-05-01 09:41:00,70.3,58.0,29.70,SSW,208,5.0,7.0,65,0.00,,,0.00,Wunderground v.1.15,2013-05-01 14:41:00,
2013-05-01 09:46:00,70.5,58.6,29.70,East,92,4.0,8.0,66,0.00,,,0.00,Wunderground v.1.15,2013-05-01 14:46:00,
2013-05-01 09:51:00,70.8,58.4,29.70,South,180,4.0,6.0,65,0.00,,,0.00,Wunderground v.1.15,2013-05-01 14:51:00,
2013-05-01 09:56:00,71.0,59.1,29.70,ENE,76,3.0,8.0,66,0.00,,,0.00,Wunderground v.1.15,2013-05-01 14:56:00,
2013-05-01 10:01:00,71.5,59.1,29.70,ESE,108,5.0,7.0,65,0.00,,,0.00,Wunderground v.1.15,2013-05-01 15:01:00,
2013-05-01 10:06:00,71.7,58.4,29.70,SSE,165,3.0,8.0,63,0.00,,,0.00,Wunderground v.1.15,2013-05-01 15:06:00,
2013-05-01 10:10:00,71.5,58.2,29.70,SSE,155,2.0,7.0,63,0.00,,,0.00,Wunderground v.1.15,2013-05-01 15:10:00,
2013-05-01 10:15:00,71.7,58.9,29.70,SE,138,1.0,7.0,64,0.00,,,0.00,Wunderground v.1.15,2013-05-01 15:15:00,
2013-05-01 10:20:00,71.8,58.5,29.71,SW,221,5.0,10.0,63,0.00,,,0.00,Wunderground v.1.15,2013-05-01 15:20:00,
2013-05-01 10:25:00,71.5,58.2,29.71,SE,134,7.0,10.0,63,0.00,,,0.00,Wunderground v.1.15,2013-05-01 15:25:00,
2013-05-01 10:30:00,71.3,58.1,29.71,SE,124,4.0,6.0,63,0.00,,,0.00,Wunderground v.1.15,2013-05-01 15:30:00,
2013-05-01 10:35:00,71.0,58.2,29.71,SSE,150,6.0,8.0,64,0.00,,,0.00,Wunderground v.1.15,2013-05-01 15:35:00,
2013-05-01 10:40:00,71.1,58.3,29.71,ESE,115,6.0,7.0,64,0.00,,,0.00,Wunderground v.1.15,2013-05-01 15:40:00,
2013-05-01 10:45:00,71.4,58.6,29.71,East,93,1.0,7.0,64,0.00,,,0.00,Wunderground v.1.15,2013-05-01 15:45:00,
2013-05-01 10:50:00,71.5,58.7,29.71,East,82,1.0,2.0,64,0.00,,,0.00,Wunderground v.1.15,2013-05-01 15:50:00,
2013-05-01 10:55:00,71.6,58.8,29.71,SE,129,3.0,5.0,64,0.00,,,0.00,Wunderground v.1.15,2013-05-01 15:55:00,
2013-05-01 11:00:00,71.5,58.7,29.71,ESE,103,3.0,3.0,64,0.00,,,0.00,Wunderground v.1.15,2013-05-01 16:00:00,
2013-05-01 11:05:00,71.3,59.4,29.71,East,98,1.0,3.0,66,0.00,,,0.00,Wunderground v.1.15,2013-05-01 16:05:00,
2013-05-01 11:10:00,71.6,59.6,29.72,SE,124,0.0,1.0,66,0.00,,,0.00,Wunderground v.1.15,2013-05-01 16:10:00,
2013-05-01 11:15:00,72.1,59.7,29.71,ESE,103,0.0,2.0,65,0.00,,,0.00,Wunderground v.1.15,2013-05-01 16:15:00,
2013-05-01 11:20:00,72.5,59.6,29.71,SE,127,0.0,2.0,64,0.00,,,0.00,Wunderground v.1.15,2013-05-01 16:20:00,
2013-05-01 11:25:00,72.9,59.6,29.71,ESE,116,1.0,4.0,63,0.00,,,0.00,Wunderground v.1.15,2013-05-01 16:25:00,
2013-05-01 11:30:00,72.8,59.5,29.71,East,86,0.0,2.0,63,0.00,,,0.00,Wunderground v.1.15,2013-05-01 16:30:00,
2013-05-01 11:35:00,73.0,60.1,29.71,ESE,106,2.0,3.0,64,0.00,,,0.00,Wunderground v.1.15,2013-05-01 16:35:00,
2013-05-01 11:40:00,73.2,59.8,29.71,SE,129,1.0,1.0,63,0.00,,,0.00,Wunderground v.1.15,2013-05-01 16:40:00,
2013-05-01 11:45:00,73.5,60.1,29.71,NE,56,0.0,2.0,63,0.00,,,0.00,Wunderground v.1.15,2013-05-01 16:45:00,
2013-05-01 11:50:00,73.9,60.5,29.71,ENE,68,1.0,2.0,63,0.00,,,0.00,Wunderground v.1.15,2013-05-01 16:50:00,
2013-05-01 11:55:00,74.4,60.5,29.71,ENE,75,0.0,3.0,62,0.00,,,0.00,Wunderground v.1.15,2013-05-01 16:55:00,
2013-05-01 12:00:00,74.8,60.0,29.71,NE,41,4.0,6.0,60,0.00,,,0.00,Wunderground v.1.15,2013-05-01 17:00:00,
2013-05-01 12:05:00,75.0,59.7,29.71,ENE,64,2.0,6.0,59,0.00,,,0.00,Wunderground v.1.15,2013-05-01 17:05:00,
2013-05-01 12:10:00,74.7,59.4,29.71,North,8,5.0,7.0,59,0.00,,,0.00,Wunderground v.1.15,2013-05-01 17:10:00,
2013-05-01 12:15:00,74.6,60.3,29.70,NNE,16,1.0,7.0,61,0.00,,,0.00,Wunderground v.1.15,2013-05-01 17:15:00,
2013-05-01 12:20:00,74.8,60.4,29.70,NE,37,3.0,3.0,61,0.00,,,0.00,Wunderground v.1.15,2013-05-01 17:20:00,
2013-05-01 12:25:00,74.8,59.5,29.70,ENE,58,3.0,5.0,59,0.00,,,0.00,Wunderground v.1.15,2013-05-01 17:25:00,
2013-05-01 12:30:00,74.6,59.8,29.70,NE,44,3.0,4.0,60,0.00,,,0.00,Wunderground v.1.15,2013-05-01 17:30:00,
2013-05-01 12:35:00,74.2,59.9,29.70,NE,53,2.0,4.0,61,0.00,,,0.00,Wunderground v.1.15,2013-05-01 17:35:00,
2013-05-01 12:40:00,74.1,60.2,29.70,NE,56,0.0,3.0,62,0.00,,,0.00,Wunderground v.1.15,2013-05-01 17:40:00,
2013-05-01 12:45:00,74.4,60.5,29.70,NE,41,2.0,3.0,62,0.00,,,0.00,Wunderground v.1.15,2013-05-01 17:45:00,
2013-05-01 12:50:00,74.4,60.1,29.70,North,358,1.0,1.0,61,0.00,,,0.00,Wunderground v.1.15,2013-05-01 17:50:00,
2013-05-01 12:55:00,74.9,60.1,29.70,North,1,2.0,5.0,60,0.00,,,0.00,Wunderground v.1.15,2013-05-01 17:55:00,
2013-05-01 13:00:00,74.9,60.1,29.70,NE,44,3.0,3.0,60,0.00,,,0.00,Wunderground v.1.15,2013-05-01 18:00:00,
2013-05-01 13:05:00,75.4,60.5,29.70,ENE,65,1.0,4.0,60,0.00,,,0.00,Wunderground v.1.15,2013-05-01 18:05:00,
2013-05-01 13:10:00,76.4,60.0,29.70,NE,46,3.0,4.0,57,0.00,,,0.00,Wunderground v.1.15,2013-05-01 18:10:00,
2013-05-01 13:15:00,76.1,60.2,29.70,ENE,71,0.0,5.0,58,0.00,,,0.00,Wunderground v.1.15,2013-05-01 18:15:00,
2013-05-01 13:20:00,75.9,59.6,29.70,NE,51,2.0,3.0,57,0.00,,,0.00,Wunderground v.1.15,2013-05-01 18:20:00,
2013-05-01 13:25:00,76.0,59.7,29.70,NNE,13,1.0,3.0,57,0.00,,,0.00,Wunderground v.1.15,2013-05-01 18:25:00,
2013-05-01 13:30:00,75.9,60.1,29.70,ENE,72,0.0,2.0,58,0.00,,,0.00,Wunderground v.1.15,2013-05-01 18:30:00,
2013-05-01 13:35:00,75.1,59.8,29.70,NE,54,2.0,4.0,59,0.00,,,0.00,Wunderground v.1.15,2013-05-01 18:35:00,
2013-05-01 13:40:00,75.1,60.3,29.70,NE,50,1.0,4.0,60,0.00,,,0.00,Wunderground v.1.15,2013-05-01 18:40:00,
2013-05-01 13:45:00,75.8,60.4,29.70,NE,47,4.0,5.0,59,0.00,,,0.00,Wunderground v.1.15,2013-05-01 18:45:00,
2013-05-01 13:50:00,76.1,60.2,29.70,NE,56,2.0,4.0,58,0.00,,,0.00,Wunderground v.1.15,2013-05-01 18:50:00,
2013-05-01 13:55:00,76.8,59.4,29.70,NE,43,3.0,6.0,55,0.00,,,0.00,Wunderground v.1.15,2013-05-01 18:55:00,
2013-05-01 14:00:00,77.2,59.8,29.70,NE,53,4.0,4.0,55,0.00,,,0.00,Wunderground v.1.15,2013-05-01 19:00:00,
2013-05-01 14:05:00,76.5,59.6,29.70,ENE,59,1.0,5.0,56,0.00,,,0.00,Wunderground v.1.15,2013-05-01 19:05:00,
2013-05-01 14:10:00,76.3,59.9,29.70,NE,36,0.0,2.0,57,0.00,,,0.00,Wunderground v.1.15,2013-05-01 19:10:00,
2013-05-01 14:15:00,76.1,60.2,29.70,NNE,18,1.0,3.0,58,0.00,,,0.00,Wunderground v.1.15,2013-05-01 19:15:00,
2013-05-01 14:20:00,76.0,60.2,29.70,NNE,32,1.0,2.0,58,0.00,,,0.00,Wunderground v.1.15,2013-05-01 19:20:00,
2013-05-01 14:25:00,75.6,59.8,29.70,NE,43,4.0,5.0,58,0.00,,,0.00,Wunderground v.1.15,2013-05-01 19:25:00,
2013-05-01 14:30:00,75.5,60.2,29.70,SE,124,0.0,2.0,59,0.00,,,0.00,Wunderground v.1.15,2013-05-01 19:30:00,
2013-05-01 14:35:00,75.9,60.5,29.69,ENE,60,0.0,4.0,59,0.00,,,0.00,Wunderground v.1.15,2013-05-01 19:35:00,
2013-05-01 14:40:00,76.0,60.6,29.69,East,101,0.0,1.0,59,0.00,,,0.00,Wunderground v.1.15,2013-05-01 19:40:00,
2013-05-01 14:45:00,76.1,60.2,29.70,ESE,114,0.0,4.0,58,0.00,,,0.00,Wunderground v.1.15,2013-05-01 19:45:00,
2013-05-01 14:50:00,76.7,60.8,29.69,East,80,0.0,0.0,58,0.00,,,0.00,Wunderground v.1.15,2013-05-01 19:50:00,
2013-05-01 14:55:00,76.7,60.8,29.69,NE,45,0.0,3.0,58,0.00,,,0.00,Wunderground v.1.15,2013-05-01 19:55:00,
2013-05-01 15:00:00,76.6,60.2,29.69,East,100,0.0,1.0,57,0.00,,,0.00,Wunderground v.1.15,2013-05-01 20:00:00,
2013-05-01 15:05:00,76.8,60.9,29.69,East,87,1.0,2.0,58,0.00,,,0.00,Wunderground v.1.15,2013-05-01 20:05:00,
2013-05-01 15:10:00,77.0,60.1,29.69,ESE,103,2.0,3.0,56,0.00,,,0.00,Wunderground v.1.15,2013-05-01 20:10:00,
2013-05-01 15:15:00,76.6,59.7,29.69,ESE,105,1.0,6.0,56,0.00,,,0.00,Wunderground v.1.15,2013-05-01 20:15:00,
2013-05-01 15:20:00,75.7,59.9,29.70,ESE,116,2.0,8.0,58,0.00,,,0.00,Wunderground v.1.15,2013-05-01 20:20:00,
2013-05-01 15:25:00,74.6,60.7,29.70,ESE,118,7.0,8.0,62,0.00,,,0.00,Wunderground v.1.15,2013-05-01 20:25:00,
2013-05-01 15:30:00,73.5,61.0,29.70,South,187,3.0,7.0,65,0.00,,,0.00,Wunderground v.1.15,2013-05-01 20:30:00,
2013-05-01 15:35:00,72.3,60.3,29.70,South,180,6.0,9.0,66,0.00,,,0.00,Wunderground v.1.15,2013-05-01 20:35:00,
2013-05-01 15:40:00,71.3,59.8,29.70,SW,221,6.0,6.0,67,0.00,,,0.00,Wunderground v.1.15,2013-05-01 20:40:00,
2013-05-01 15:45:00,70.8,59.7,29.69,SW,236,2.0,6.0,68,0.00,,,0.00,Wunderground v.1.15,2013-05-01 20:45:00,
2013-05-01 15:50:00,70.7,59.6,29.70,SW,217,2.0,3.0,68,0.00,,,0.00,Wunderground v.1.15,2013-05-01 20:50:00,
2013-05-01 15:55:00,70.7,60.0,29.70,SSE,153,2.0,3.0,69,0.00,,,0.00,Wunderground v.1.15,2013-05-01 20:55:00,
2013-05-01 16:00:00,70.5,60.2,29.70,SSW,197,4.0,4.0,70,0.00,,,0.00,Wunderground v.1.15,2013-05-01 21:00:00,
2013-05-01 16:05:00,70.1,60.3,29.70,SSW,212,2.0,7.0,71,0.00,,,0.00,Wunderground v.1.15,2013-05-01 21:05:00,
2013-05-01 16:10:00,69.8,60.4,29.69,SE,139,3.0,7.0,72,0.00,,,0.00,Wunderground v.1.15,2013-05-01 21:10:00,
2013-05-01 16:15:00,69.6,60.6,29.69,SW,219,3.0,9.0,73,0.00,,,0.00,Wunderground v.1.15,2013-05-01 21:15:00,
2013-05-01 16:20:00,69.7,60.3,29.69,SSW,195,1.0,4.0,72,0.00,,,0.00,Wunderground v.1.15,2013-05-01 21:20:00,
2013-05-01 16:25:00,69.7,60.3,29.69,South,174,2.0,4.0,72,0.00,,,0.00,Wunderground v.1.15,2013-05-01 21:25:00,
2013-05-01 16:30:00,69.9,60.5,29.69,SSE,165,2.0,3.0,72,0.00,,,0.00,Wunderground v.1.15,2013-05-01 21:30:00,
2013-05-01 16:35:00,70.1,60.3,29.69,SW,219,0.0,3.0,71,0.00,,,0.00,Wunderground v.1.15,2013-05-01 21:35:00,
2013-05-01 16:40:00,70.3,60.4,29.68,SW,228,0.0,1.0,71,0.00,,,0.00,Wunderground v.1.15,2013-05-01 21:40:00,
2013-05-01 16:45:00,70.7,60.0,29.68,SE,136,0.0,1.0,69,0.00,,,0.00,Wunderground v.1.15,2013-05-01 21:45:00,
2013-05-01 16:50:00,71.1,60.0,29.68,SE,135,0.0,0.0,68,0.00,,,0.00,Wunderground v.1.15,2013-05-01 21:50:00,
2013-05-01 16:55:00,71.3,59.4,29.68,SSE,168,0.0,0.0,66,0.00,,,0.00,Wunderground v.1.15,2013-05-01 21:55:00,
2013-05-01 17:00:00,71.4,59.4,29.68,SW,222,0.0,0.0,66,0.00,,,0.00,Wunderground v.1.15,2013-05-01 22:00:00,
2013-05-01 17:05:00,71.6,59.6,29.68,SW,224,0.0,1.0,66,0.00,,,0.00,Wunderground v.1.15,2013-05-01 22:05:00,
2013-05-01 17:10:00,71.7,59.7,29.68,SW,224,0.0,0.0,66,0.00,,,0.00,Wunderground v.1.15,2013-05-01 22:10:00,
2013-05-01 17:15:00,72.0,59.6,29.68,SW,224,0.0,1.0,65,0.00,,,0.00,Wunderground v.1.15,2013-05-01 22:15:00,
2013-05-01 17:20:00,72.2,59.3,29.68,SW,224,0.0,0.0,64,0.00,,,0.00,Wunderground v.1.15,2013-05-01 22:20:00,
2013-05-01 17:25:00,72.5,60.5,29.68,SW,222,0.0,0.0,66,0.00,,,0.00,Wunderground v.1.15,2013-05-01 22:25:00,
2013-05-01 17:30:00,72.4,60.4,29.68,SW,225,0.0,0.0,66,0.00,,,0.00,Wunderground v.1.15,2013-05-01 22:30:00,
2013-05-01 17:35:00,72.0,60.0,29.67,NNE,25,0.0,1.0,66,0.00,,,0.00,Wunderground v.1.15,2013-05-01 22:35:00,
2013-05-01 17:40:00,71.5,60.4,29.67,NNE,26,0.0,0.0,68,0.00,,,0.00,Wunderground v.1.15,2013-05-01 22:40:00,
2013-05-01 17:45:00,71.3,60.2,29.67,NNE,26,0.0,0.0,68,0.00,,,0.00,Wunderground v.1.15,2013-05-01 22:45:00,
2013-05-01 17:50:00,71.3,60.2,29.67,NNE,26,0.0,1.0,68,0.00,,,0.00,Wunderground v.1.15,2013-05-01 22:50:00,
2013-05-01 17:55:00,71.0,61.5,29.67,NNE,20,0.0,1.0,72,0.00,,,0.00,Wunderground v.1.15,2013-05-01 22:55:00,
2013-05-01 18:00:00,70.7,60.8,29.67,NNE,20,0.0,0.0,71,0.00,,,0.00,Wunderground v.1.15,2013-05-01 23:00:00,
2013-05-01 18:05:00,70.7,61.2,29.67,NNE,15,0.0,1.0,72,0.00,,,0.00,Wunderground v.1.15,2013-05-01 23:05:00,
2013-05-01 18:10:00,70.6,60.7,29.67,NNE,14,0.0,0.0,71,0.00,,,0.00,Wunderground v.1.15,2013-05-01 23:10:00,
2013-05-01 18:15:00,70.7,60.0,29.67,NNE,15,0.0,0.0,69,0.00,,,0.00,Wunderground v.1.15,2013-05-01 23:15:00,
2013-05-01 18:20:00,70.5,60.6,29.67,NNE,14,0.0,0.0,71,0.00,,,0.00,Wunderground v.1.15,2013-05-01 23:20:00,
2013-05-01 18:25:00,70.3,60.1,29.67,NE,39,0.0,0.0,70,0.00,,,0.00,Wunderground v.1.15,2013-05-01 23:25:00,
2013-05-01 18:30:00,70.4,61.3,29.67,ENE,57,0.0,0.0,73,0.00,,,0.00,Wunderground v.1.15,2013-05-01 23:30:00,
2013-05-01 18:35:00,70.4,61.7,29.67,ENE,57,0.0,0.0,74,0.00,,,0.00,Wunderground v.1.15,2013-05-01 23:35:00,
2013-05-01 18:40:00,70.7,60.8,29.67,ENE,57,0.0,0.0,71,0.00,,,0.00,Wunderground v.1.15,2013-05-01 23:40:00,
2013-05-01 18:45:00,71.3,61.4,29.67,NE,54,0.0,0.0,71,0.00,,,0.00,Wunderground v.1.15,2013-05-01 23:45:00,
2013-05-01 18:50:00,71.5,61.6,29.67,NE,54,0.0,0.0,71,0.00,,,0.00,Wunderground v.1.15,2013-05-01 23:50:00,
2013-05-01 18:55:00,71.7,61.8,29.67,NE,53,0.0,0.0,71,0.00,,,0.00,Wunderground v.1.15,2013-05-01 23:55:00,
2013-05-01 19:00:00,71.7,62.2,29.67,NE,54,0.0,0.0,72,0.00,,,0.00,Wunderground v.1.15,2013-05-02 00:00:00,
2013-05-01 19:05:00,71.5,62.0,29.67,NE,53,0.0,0.0,72,0.00,,,0.00,Wunderground v.1.15,2013-05-02 00:05:00,
2013-05-01 19:10:00,71.2,62.1,29.67,NE,56,0.0,0.0,73,0.00,,,0.00,Wunderground v.1.15,2013-05-02 00:10:00,
2013-05-01 19:15:00,70.8,62.1,29.67,NE,56,0.0,0.0,74,0.00,,,0.00,Wunderground v.1.15,2013-05-02 00:15:00,
2013-05-01 19:20:00,70.5,61.8,29.67,NE,56,0.0,0.0,74,0.00,,,0.00,Wunderground v.1.15,2013-05-02 00:20:00,
2013-05-01 19:25:00,70.1,61.0,29.67,NE,50,0.0,1.0,73,0.00,,,0.00,Wunderground v.1.15,2013-05-02 00:25:00,
2013-05-01 19:30:00,69.8,60.4,29.67,NE,50,0.0,0.0,72,0.00,,,0.00,Wunderground v.1.15,2013-05-02 00:30:00,
2013-05-01 19:35:00,69.5,61.6,29.67,NE,50,0.0,0.0,76,0.00,,,0.00,Wunderground v.1.15,2013-05-02 00:35:00,
2013-05-01 19:40:00,69.1,59.7,29.68,ENE,65,0.0,0.0,72,0.00,,,0.00,Wunderground v.1.15,2013-05-02 00:40:00,
2013-05-01 19:45:00,68.9,59.9,29.68,ENE,65,0.0,0.0,73,0.00,,,0.00,Wunderground v.1.15,2013-05-02 00:45:00,
2013-05-01 19:50:00,68.6,59.2,29.68,ENE,65,0.0,0.0,72,0.00,,,0.00,Wunderground v.1.15,2013-05-02 00:50:00,
2013-05-01 19:55:00,68.3,59.3,29.68,ENE,65,0.0,0.0,73,0.00,,,0.00,Wunderground v.1.15,2013-05-02 00:55:00,
2013-05-01 20:00:00,68.2,58.8,29.69,ENE,65,0.0,0.0,72,0.00,,,0.00,Wunderground v.1.15,2013-05-02 01:00:00,
2013-05-01 20:05:00,68.1,59.1,29.69,ENE,57,0.0,0.0,73,0.00,,,0.00,Wunderground v.1.15,2013-05-02 01:05:00,
2013-05-01 20:10:00,67.9,58.9,29.69,ENE,57,0.0,0.0,73,0.00,,,0.00,Wunderground v.1.15,2013-05-02 01:10:00,
2013-05-01 20:15:00,67.6,58.2,29.69,ENE,57,0.0,0.0,72,0.00,,,0.00,Wunderground v.1.15,2013-05-02 01:15:00,
2013-05-01 20:20:00,67.5,58.5,29.69,ENE,57,0.0,0.0,73,0.00,,,0.00,Wunderground v.1.15,2013-05-02 01:20:00,
2013-05-01 20:25:00,67.3,58.7,29.69,ENE,57,0.0,0.0,74,0.00,,,0.00,Wunderground v.1.15,2013-05-02 01:25:00,
2013-05-01 20:30:00,67.2,59.0,29.69,NE,34,0.0,0.0,75,0.00,,,0.00,Wunderground v.1.15,2013-05-02 01:30:00,
2013-05-01 20:35:00,66.8,59.0,29.70,NE,34,0.0,0.0,76,0.00,,,0.00,Wunderground v.1.15,2013-05-02 01:35:00,
2013-05-01 20:40:00,66.2,58.4,29.70,NE,34,0.0,0.0,76,0.00,,,0.00,Wunderground v.1.15,2013-05-02 01:40:00,
2013-05-01 20:45:00,65.8,58.7,29.70,NE,34,0.0,0.0,78,0.00,,,0.00,Wunderground v.1.15,2013-05-02 01:45:00,
2013-05-01 20:50:00,65.7,59.0,29.70,NE,34,0.0,0.0,79,0.00,,,0.00,Wunderground v.1.15,2013-05-02 01:50:00,
2013-05-01 20:55:00,65.5,58.8,29.70,NE,34,0.0,0.0,79,0.00,,,0.00,Wunderground v.1.15,2013-05-02 01:55:00,
2013-05-01 21:00:00,65.1,58.4,29.70,NE,34,0.0,0.0,79,0.00,,,0.00,Wunderground v.1.15,2013-05-02 02:00:00,
2013-05-01 21:05:00,65.0,58.7,29.70,NE,34,0.0,0.0,80,0.00,,,0.00,Wunderground v.1.15,2013-05-02 02:05:00,
2013-05-01 21:10:00,65.1,58.8,29.70,NE,34,0.0,0.0,80,0.00,,,0.00,Wunderground v.1.15,2013-05-02 02:10:00,
2013-05-01 21:15:00,65.0,58.7,29.71,NE,34,0.0,0.0,80,0.00,,,0.00,Wunderground v.1.15,2013-05-02 02:15:00,
2013-05-01 21:20:00,64.8,59.5,29.71,NE,34,0.0,1.0,83,0.00,,,0.00,Wunderground v.1.15,2013-05-02 02:20:00,
2013-05-01 21:25:00,64.6,59.3,29.71,NNE,26,0.0,1.0,83,0.00,,,0.00,Wunderground v.1.15,2013-05-02 02:25:00,
2013-05-01 21:30:00,64.5,59.6,29.71,NNE,26,0.0,0.0,84,0.00,,,0.00,Wunderground v.1.15,2013-05-02 02:30:00,
2013-05-01 21:35:00,64.4,60.1,29.71,NNE,26,0.0,0.0,86,0.00,,,0.00,Wunderground v.1.15,2013-05-02 02:35:00,
2013-05-01 21:40:00,64.1,59.8,29.71,NNE,26,0.0,0.0,86,0.00,,,0.00,Wunderground v.1.15,2013-05-02 02:40:00,
2013-05-01 21:45:00,63.9,59.6,29.71,NNE,26,0.0,0.0,86,0.00,,,0.00,Wunderground v.1.15,2013-05-02 02:45:00,
2013-05-01 21:50:00,63.7,59.4,29.71,NNE,26,0.0,0.0,86,0.00,,,0.00,Wunderground v.1.15,2013-05-02 02:50:00,
2013-05-01 21:55:00,63.5,59.2,29.71,NNE,26,0.0,0.0,86,0.00,,,0.00,Wunderground v.1.15,2013-05-02 02:55:00,
2013-05-01 22:00:00,63.3,59.0,29.71,NNE,26,0.0,0.0,86,0.00,,,0.00,Wunderground v.1.15,2013-05-02 03:00:00,
2013-05-01 22:05:00,63.0,58.7,29.71,NNE,26,0.0,0.0,86,0.00,,,0.00,Wunderground v.1.15,2013-05-02 03:05:00,
2013-05-01 22:10:00,62.8,58.9,29.71,NNE,26,0.0,0.0,87,0.00,,,0.00,Wunderground v.1.15,2013-05-02 03:10:00,
2013-05-01 22:15:00,62.6,58.7,29.71,NNE,26,0.0,0.0,87,0.00,,,0.00,Wunderground v.1.15,2013-05-02 03:15:00,
2013-05-01 22:20:00,62.3,58.7,29.71,NNE,26,0.0,0.0,88,0.00,,,0.00,Wunderground v.1.15,2013-05-02 03:20:00,
2013-05-01 22:25:00,62.1,58.5,29.71,NNE,26,0.0,0.0,88,0.00,,,0.00,Wunderground v.1.15,2013-05-02 03:25:00,
2013-05-01 22:30:00,61.9,58.6,29.70,NNE,26,0.0,0.0,89,0.00,,,0.00,Wunderground v.1.15,2013-05-02 03:30:00,
2013-05-01 22:35:00,61.8,58.5,29.70,NNE,26,0.0,0.0,89,0.00,,,0.00,Wunderground v.1.15,2013-05-02 03:35:00,
2013-05-01 22:40:00,61.6,58.3,29.70,NNE,26,0.0,0.0,89,0.00,,,0.00,Wunderground v.1.15,2013-05-02 03:40:00,
2013-05-01 22:45:00,61.6,58.3,29.70,NNE,26,0.0,0.0,89,0.00,,,0.00,Wunderground v.1.15,2013-05-02 03:45:00,
2013-05-01 22:50:00,61.4,58.1,29.70,NNE,26,0.0,0.0,89,0.00,,,0.00,Wunderground v.1.15,2013-05-02 03:50:00,
2013-05-01 22:55:00,61.3,58.3,29.70,NNE,26,0.0,0.0,90,0.00,,,0.00,Wunderground v.1.15,2013-05-02 03:55:00,
2013-05-01 23:00:00,61.2,58.6,29.70,NNE,26,0.0,0.0,91,0.00,,,0.00,Wunderground v.1.15,2013-05-02 04:00:00,
2013-05-01 23:01:00,61.2,58.6,29.70,NNE,26,0.0,0.0,91,0.00,,,0.00,Wunderground v.1.15,2013-05-02 04:01:00,
2013-05-01 23:06:00,61.1,58.5,29.70,NNE,26,0.0,0.0,91,0.00,,,0.00,Wunderground v.1.15,2013-05-02 04:06:00,
2013-05-01 23:11:00,61.0,58.4,29.70,NNE,26,0.0,0.0,91,0.00,,,0.00,Wunderground v.1.15,2013-05-02 04:11:00,
2013-05-01 23:16:00,60.8,58.2,29.70,NNE,26,0.0,0.0,91,0.00,,,0.00,Wunderground v.1.15,2013-05-02 04:16:00,
2013-05-01 23:21:00,60.6,58.0,29.69,NNE,26,0.0,0.0,91,0.00,,,0.00,Wunderground v.1.15,2013-05-02 04:21:00,
2013-05-01 23:26:00,60.4,58.1,29.69,NNE,26,0.0,0.0,92,0.00,,,0.00,Wunderground v.1.15,2013-05-02 04:26:00,
2013-05-01 23:31:00,60.3,58.0,29.69,NNE,26,0.0,0.0,92,0.00,,,0.00,Wunderground v.1.15,2013-05-02 04:31:00,
2013-05-01 23:36:00,60.3,58.0,29.69,NNE,26,0.0,0.0,92,0.00,,,0.00,Wunderground v.1.15,2013-05-02 04:36:00,
2013-05-01 23:41:00,60.3,58.3,29.69,NNE,26,0.0,0.0,93,0.00,,,0.00,Wunderground v.1.15,2013-05-02 04:41:00,
2013-05-01 23:46:00,60.3,58.3,29.69,NNE,26,0.0,0.0,93,0.00,,,0.00,Wunderground v.1.15,2013-05-02 04:46:00,
2013-05-01 23:51:00,60.3,58.0,29.69,NNE,26,0.0,0.0,92,0.00,,,0.00,Wunderground v.1.15,2013-05-02 04:51:00,
2013-05-01 23:56:00,60.1,57.8,29.69,NNE,26,0.0,0.0,92,0.00,,,0.00,Wunderground v.1.15,2013-05-02 04:56:00,